sensor_id;sensor_type;location;lat;lon;timestamp;temperature;humidity
51902;DHT22;37929;53.218;6.548;2023-02-18T00:00:59;7.30;99.90
51902;DHT22;37929;53.218;6.548;2023-02-18T00:03:26;7.40;99.90
51902;DHT22;37929;53.218;6.548;2023-02-18T00:05:52;7.30;99.90
51902;DHT22;37929;53.218;6.548;2023-02-18T00:08:19;7.40;99.90
51902;DHT22;37929;53.218;6.548;2023-02-18T00:10:45;7.30;99.90
51902;DHT22;37929;53.218;6.548;2023-02-18T00:13:11;7.40;99.90
51902;DHT22;37929;53.218;6.548;2023-02-18T00:15:38;7.40;99.90
51902;DHT22;37929;53.218;6.548;2023-02-18T00:18:05;7.40;99.90
51902;DHT22;37929;53.218;6.548;2023-02-18T00:20:31;7.40;99.90
51902;DHT22;37929;53.218;6.548;2023-02-18T00:23:01;7.40;99.90
51902;DHT22;37929;53.218;6.548;2023-02-18T00:25:27;7.40;99.90
51902;DHT22;37929;53.218;6.548;2023-02-18T00:27:53;7.40;99.90
51902;DHT22;37929;53.218;6.548;2023-02-18T00:30:19;7.40;99.90
51902;DHT22;37929;53.218;6.548;2023-02-18T00:32:45;7.40;99.90
51902;DHT22;37929;53.218;6.548;2023-02-18T00:35:11;7.40;99.90
51902;DHT22;37929;53.218;6.548;2023-02-18T00:37:36;7.40;99.90
51902;DHT22;37929;53.218;6.548;2023-02-18T00:40:02;7.30;99.90
51902;DHT22;37929;53.218;6.548;2023-02-18T00:42:28;7.30;99.90
51902;DHT22;37929;53.218;6.548;2023-02-18T00:44:54;7.30;99.90
51902;DHT22;37929;53.218;6.548;2023-02-18T00:47:20;7.30;99.90
51902;DHT22;37929;53.218;6.548;2023-02-18T00:49:46;7.30;99.90
51902;DHT22;37929;53.218;6.548;2023-02-18T00:52:11;7.30;99.90
51902;DHT22;37929;53.218;6.548;2023-02-18T00:54:37;7.30;99.90
51902;DHT22;37929;53.218;6.548;2023-02-18T00:57:03;7.30;99.90
51902;DHT22;37929;53.218;6.548;2023-02-18T00:59:28;7.20;99.90
51902;DHT22;37929;53.218;6.548;2023-02-18T01:01:54;7.30;99.90
51902;DHT22;37929;53.218;6.548;2023-02-18T01:04:20;7.20;99.90
51902;DHT22;37929;53.218;6.548;2023-02-18T01:06:45;7.20;99.90
51902;DHT22;37929;53.218;6.548;2023-02-18T01:09:11;7.20;99.90
51902;DHT22;37929;53.218;6.548;2023-02-18T01:11:37;7.10;99.90
51902;DHT22;37929;53.218;6.548;2023-02-18T01:14:03;7.10;99.90
51902;DHT22;37929;53.218;6.548;2023-02-18T01:16:29;7.10;99.90
51902;DHT22;37929;53.218;6.548;2023-02-18T01:18:55;7.10;99.90
51902;DHT22;37929;53.218;6.548;2023-02-18T01:21:21;7.00;99.90
51902;DHT22;37929;53.218;6.548;2023-02-18T01:23:46;7.10;99.90
51902;DHT22;37929;53.218;6.548;2023-02-18T01:26:12;7.20;99.90
51902;DHT22;37929;53.218;6.548;2023-02-18T01:28:39;7.10;99.90
51902;DHT22;37929;53.218;6.548;2023-02-18T01:31:08;7.10;99.90
51902;DHT22;37929;53.218;6.548;2023-02-18T01:33:35;7.10;99.90
51902;DHT22;37929;53.218;6.548;2023-02-18T01:36:02;7.20;99.90
51902;DHT22;37929;53.218;6.548;2023-02-18T01:38:27;7.20;99.90
51902;DHT22;37929;53.218;6.548;2023-02-18T01:40:53;7.20;99.90
51902;DHT22;37929;53.218;6.548;2023-02-18T01:43:20;7.20;99.90
51902;DHT22;37929;53.218;6.548;2023-02-18T01:45:51;7.20;99.90
51902;DHT22;37929;53.218;6.548;2023-02-18T01:48:24;7.20;99.90
51902;DHT22;37929;53.218;6.548;2023-02-18T01:51:04;7.30;99.90
51902;DHT22;37929;53.218;6.548;2023-02-18T01:53:38;7.30;99.90
51902;DHT22;37929;53.218;6.548;2023-02-18T01:56:09;7.30;99.90
51902;DHT22;37929;53.218;6.548;2023-02-18T01:58:35;7.30;99.90
51902;DHT22;37929;53.218;6.548;2023-02-18T02:01:02;7.40;99.90
51902;DHT22;37929;53.218;6.548;2023-02-18T02:03:28;7.40;99.90
51902;DHT22;37929;53.218;6.548;2023-02-18T02:05:53;7.40;99.90
51902;DHT22;37929;53.218;6.548;2023-02-18T02:08:19;7.90;99.90
51902;DHT22;37929;53.218;6.548;2023-02-18T02:19:14;7.50;99.90
51902;DHT22;37929;53.218;6.548;2023-02-18T02:24:17;7.50;99.90
51902;DHT22;37929;53.218;6.548;2023-02-18T02:27:08;7.50;99.90
51902;DHT22;37929;53.218;6.548;2023-02-18T02:29:57;7.50;99.90
51902;DHT22;37929;53.218;6.548;2023-02-18T02:35:22;7.50;99.90
51902;DHT22;37929;53.218;6.548;2023-02-18T02:40:27;7.50;99.90
51902;DHT22;37929;53.218;6.548;2023-02-18T02:46:02;7.60;99.90
51902;DHT22;37929;53.218;6.548;2023-02-18T02:51:53;7.60;99.90
51902;DHT22;37929;53.218;6.548;2023-02-18T02:54:26;7.60;99.90
51902;DHT22;37929;53.218;6.548;2023-02-18T02:59:40;7.60;99.90
51902;DHT22;37929;53.218;6.548;2023-02-18T03:19:32;7.60;99.90
51902;DHT22;37929;53.218;6.548;2023-02-18T03:22:07;7.70;99.90
51902;DHT22;37929;53.218;6.548;2023-02-18T03:24:41;7.70;99.90
51902;DHT22;37929;53.218;6.548;2023-02-18T03:29:47;7.70;99.90
51902;DHT22;37929;53.218;6.548;2023-02-18T03:32:17;7.80;99.90
51902;DHT22;37929;53.218;6.548;2023-02-18T03:34:48;7.80;99.90
51902;DHT22;37929;53.218;6.548;2023-02-18T03:37:15;7.80;99.90
51902;DHT22;37929;53.218;6.548;2023-02-18T03:39:47;7.80;99.90
51902;DHT22;37929;53.218;6.548;2023-02-18T03:42:15;7.80;99.90
51902;DHT22;37929;53.218;6.548;2023-02-18T03:44:43;7.80;99.90
51902;DHT22;37929;53.218;6.548;2023-02-18T03:47:09;7.80;99.90
51902;DHT22;37929;53.218;6.548;2023-02-18T03:49:35;7.80;99.90
51902;DHT22;37929;53.218;6.548;2023-02-18T03:52:01;7.80;99.90
51902;DHT22;37929;53.218;6.548;2023-02-18T03:54:27;7.70;99.90
51902;DHT22;37929;53.218;6.548;2023-02-18T03:56:53;7.70;99.90
51902;DHT22;37929;53.218;6.548;2023-02-18T03:59:19;7.70;99.90
51902;DHT22;37929;53.218;6.548;2023-02-18T04:01:44;7.70;99.90
51902;DHT22;37929;53.218;6.548;2023-02-18T04:04:10;7.60;99.90
51902;DHT22;37929;53.218;6.548;2023-02-18T04:06:36;7.70;99.90
51902;DHT22;37929;53.218;6.548;2023-02-18T04:09:02;7.80;99.90
51902;DHT22;37929;53.218;6.548;2023-02-18T04:11:37;7.70;99.90
51902;DHT22;37929;53.218;6.548;2023-02-18T04:14:03;7.70;99.90
51902;DHT22;37929;53.218;6.548;2023-02-18T04:16:29;7.70;99.90
51902;DHT22;37929;53.218;6.548;2023-02-18T04:18:54;7.70;99.90
51902;DHT22;37929;53.218;6.548;2023-02-18T04:21:20;7.70;99.90
51902;DHT22;37929;53.218;6.548;2023-02-18T04:23:46;7.70;99.90
51902;DHT22;37929;53.218;6.548;2023-02-18T04:26:12;7.70;99.90
51902;DHT22;37929;53.218;6.548;2023-02-18T04:28:37;7.60;99.90
51902;DHT22;37929;53.218;6.548;2023-02-18T04:31:03;7.60;99.90
51902;DHT22;37929;53.218;6.548;2023-02-18T04:33:29;7.60;99.90
51902;DHT22;37929;53.218;6.548;2023-02-18T04:35:55;7.50;99.90
51902;DHT22;37929;53.218;6.548;2023-02-18T04:38:20;7.50;99.90
51902;DHT22;37929;53.218;6.548;2023-02-18T04:40:46;7.50;99.90
51902;DHT22;37929;53.218;6.548;2023-02-18T04:43:12;7.60;99.90
51902;DHT22;37929;53.218;6.548;2023-02-18T04:45:38;7.50;99.90
51902;DHT22;37929;53.218;6.548;2023-02-18T04:48:04;7.60;99.90
51902;DHT22;37929;53.218;6.548;2023-02-18T04:50:30;7.50;99.90
51902;DHT22;37929;53.218;6.548;2023-02-18T04:52:56;7.40;99.90
51902;DHT22;37929;53.218;6.548;2023-02-18T04:55:21;7.40;99.90
51902;DHT22;37929;53.218;6.548;2023-02-18T04:57:47;7.40;99.90
51902;DHT22;37929;53.218;6.548;2023-02-18T05:00:18;7.50;99.90
51902;DHT22;37929;53.218;6.548;2023-02-18T05:02:44;7.50;99.90
51902;DHT22;37929;53.218;6.548;2023-02-18T05:05:11;7.50;99.90
51902;DHT22;37929;53.218;6.548;2023-02-18T05:07:36;7.50;99.90
51902;DHT22;37929;53.218;6.548;2023-02-18T05:10:03;7.50;99.90
51902;DHT22;37929;53.218;6.548;2023-02-18T05:12:29;7.50;99.90
51902;DHT22;37929;53.218;6.548;2023-02-18T05:14:55;7.60;99.90
51902;DHT22;37929;53.218;6.548;2023-02-18T05:17:20;7.60;99.90
51902;DHT22;37929;53.218;6.548;2023-02-18T05:19:46;7.60;99.90
51902;DHT22;37929;53.218;6.548;2023-02-18T05:22:12;7.60;99.90
51902;DHT22;37929;53.218;6.548;2023-02-18T05:24:38;7.60;99.90
51902;DHT22;37929;53.218;6.548;2023-02-18T05:27:03;7.70;99.90
51902;DHT22;37929;53.218;6.548;2023-02-18T05:29:29;7.70;99.90
51902;DHT22;37929;53.218;6.548;2023-02-18T05:31:55;7.70;99.90
51902;DHT22;37929;53.218;6.548;2023-02-18T05:34:21;8.20;99.90
51902;DHT22;37929;53.218;6.548;2023-02-18T05:36:46;7.80;99.90
51902;DHT22;37929;53.218;6.548;2023-02-18T05:39:12;7.80;99.90
51902;DHT22;37929;53.218;6.548;2023-02-18T05:41:38;7.90;99.90
51902;DHT22;37929;53.218;6.548;2023-02-18T05:44:03;7.90;99.90
51902;DHT22;37929;53.218;6.548;2023-02-18T05:46:48;8.00;99.90
51902;DHT22;37929;53.218;6.548;2023-02-18T05:49:14;7.40;99.90
51902;DHT22;37929;53.218;6.548;2023-02-18T05:51:39;8.10;99.90
51902;DHT22;37929;53.218;6.548;2023-02-18T05:54:05;8.10;99.90
51902;DHT22;37929;53.218;6.548;2023-02-18T05:56:31;8.10;99.90
51902;DHT22;37929;53.218;6.548;2023-02-18T05:58:57;7.40;99.90
51902;DHT22;37929;53.218;6.548;2023-02-18T06:01:22;8.20;99.90
51902;DHT22;37929;53.218;6.548;2023-02-18T06:03:48;8.30;99.90
51902;DHT22;37929;53.218;6.548;2023-02-18T06:06:14;8.30;99.90
51902;DHT22;37929;53.218;6.548;2023-02-18T06:08:39;8.30;99.90
51902;DHT22;37929;53.218;6.548;2023-02-18T06:11:05;8.40;99.90
51902;DHT22;37929;53.218;6.548;2023-02-18T06:13:31;8.40;99.90
51902;DHT22;37929;53.218;6.548;2023-02-18T06:15:57;8.50;99.90
51902;DHT22;37929;53.218;6.548;2023-02-18T06:18:22;8.50;99.90
51902;DHT22;37929;53.218;6.548;2023-02-18T06:20:48;8.50;99.90
51902;DHT22;37929;53.218;6.548;2023-02-18T06:23:14;8.50;99.90
51902;DHT22;37929;53.218;6.548;2023-02-18T06:25:40;8.60;99.90
51902;DHT22;37929;53.218;6.548;2023-02-18T06:28:06;8.60;99.90
51902;DHT22;37929;53.218;6.548;2023-02-18T06:30:32;8.70;99.90
51902;DHT22;37929;53.218;6.548;2023-02-18T06:32:58;8.70;99.90
51902;DHT22;37929;53.218;6.548;2023-02-18T06:35:24;8.70;99.90
51902;DHT22;37929;53.218;6.548;2023-02-18T06:37:49;8.80;99.90
51902;DHT22;37929;53.218;6.548;2023-02-18T06:40:15;8.90;99.90
51902;DHT22;37929;53.218;6.548;2023-02-18T06:42:42;8.80;99.90
51902;DHT22;37929;53.218;6.548;2023-02-18T06:45:09;8.90;99.90
51902;DHT22;37929;53.218;6.548;2023-02-18T06:47:35;8.90;99.90
51902;DHT22;37929;53.218;6.548;2023-02-18T06:50:00;9.00;99.90
51902;DHT22;37929;53.218;6.548;2023-02-18T06:52:26;9.00;99.90
51902;DHT22;37929;53.218;6.548;2023-02-18T06:54:52;9.00;99.90
51902;DHT22;37929;53.218;6.548;2023-02-18T06:57:18;9.10;99.90
51902;DHT22;37929;53.218;6.548;2023-02-18T06:59:43;9.10;99.90
51902;DHT22;37929;53.218;6.548;2023-02-18T07:02:11;9.10;99.90
51902;DHT22;37929;53.218;6.548;2023-02-18T07:04:37;9.10;99.90
51902;DHT22;37929;53.218;6.548;2023-02-18T07:07:03;9.10;99.90
51902;DHT22;37929;53.218;6.548;2023-02-18T07:09:29;9.10;99.90
51902;DHT22;37929;53.218;6.548;2023-02-18T07:11:54;9.20;99.90
51902;DHT22;37929;53.218;6.548;2023-02-18T07:14:20;9.20;99.90
51902;DHT22;37929;53.218;6.548;2023-02-18T07:16:46;9.20;99.90
51902;DHT22;37929;53.218;6.548;2023-02-18T07:19:12;9.20;99.90
51902;DHT22;37929;53.218;6.548;2023-02-18T07:21:37;9.30;99.90
51902;DHT22;37929;53.218;6.548;2023-02-18T07:24:03;9.40;99.90
51902;DHT22;37929;53.218;6.548;2023-02-18T07:26:29;9.40;99.90
51902;DHT22;37929;53.218;6.548;2023-02-18T07:28:55;9.50;99.90
51902;DHT22;37929;53.218;6.548;2023-02-18T07:31:20;9.50;99.90
51902;DHT22;37929;53.218;6.548;2023-02-18T07:33:46;9.50;99.90
51902;DHT22;37929;53.218;6.548;2023-02-18T07:36:12;9.50;99.90
51902;DHT22;37929;53.218;6.548;2023-02-18T07:38:38;9.60;99.90
51902;DHT22;37929;53.218;6.548;2023-02-18T07:41:04;9.60;99.90
51902;DHT22;37929;53.218;6.548;2023-02-18T07:43:30;9.60;99.90
51902;DHT22;37929;53.218;6.548;2023-02-18T07:45:55;9.60;99.90
51902;DHT22;37929;53.218;6.548;2023-02-18T07:48:21;9.70;99.90
51902;DHT22;37929;53.218;6.548;2023-02-18T07:50:47;9.70;99.90
51902;DHT22;37929;53.218;6.548;2023-02-18T07:53:14;9.70;99.90
51902;DHT22;37929;53.218;6.548;2023-02-18T07:55:40;9.70;99.90
51902;DHT22;37929;53.218;6.548;2023-02-18T08:00:45;9.70;99.90
51902;DHT22;37929;53.218;6.548;2023-02-18T08:03:16;9.70;99.90
51902;DHT22;37929;53.218;6.548;2023-02-18T08:05:42;9.60;99.90
51902;DHT22;37929;53.218;6.548;2023-02-18T08:08:12;9.60;99.90
51902;DHT22;37929;53.218;6.548;2023-02-18T08:10:38;9.60;99.90
51902;DHT22;37929;53.218;6.548;2023-02-18T08:13:04;9.60;99.90
51902;DHT22;37929;53.218;6.548;2023-02-18T08:15:29;9.60;99.90
51902;DHT22;37929;53.218;6.548;2023-02-18T08:17:55;9.60;99.90
51902;DHT22;37929;53.218;6.548;2023-02-18T08:20:21;9.60;99.90
51902;DHT22;37929;53.218;6.548;2023-02-18T08:22:47;9.70;99.90
51902;DHT22;37929;53.218;6.548;2023-02-18T08:25:12;9.60;99.90
51902;DHT22;37929;53.218;6.548;2023-02-18T08:27:38;9.60;99.90
51902;DHT22;37929;53.218;6.548;2023-02-18T08:30:04;9.50;99.90
51902;DHT22;37929;53.218;6.548;2023-02-18T08:32:30;9.50;99.90
51902;DHT22;37929;53.218;6.548;2023-02-18T08:34:56;9.50;99.90
51902;DHT22;37929;53.218;6.548;2023-02-18T08:37:22;9.40;99.90
51902;DHT22;37929;53.218;6.548;2023-02-18T08:39:48;9.40;99.90
51902;DHT22;37929;53.218;6.548;2023-02-18T08:42:14;9.40;99.90
51902;DHT22;37929;53.218;6.548;2023-02-18T08:44:39;9.40;99.90
51902;DHT22;37929;53.218;6.548;2023-02-18T08:47:05;9.40;99.90
51902;DHT22;37929;53.218;6.548;2023-02-18T08:49:31;9.30;99.90
51902;DHT22;37929;53.218;6.548;2023-02-18T08:51:56;9.30;99.90
51902;DHT22;37929;53.218;6.548;2023-02-18T08:54:22;9.30;99.90
51902;DHT22;37929;53.218;6.548;2023-02-18T08:56:48;9.20;99.90
51902;DHT22;37929;53.218;6.548;2023-02-18T08:59:14;9.20;99.90
51902;DHT22;37929;53.218;6.548;2023-02-18T09:01:39;9.20;99.90
51902;DHT22;37929;53.218;6.548;2023-02-18T09:04:05;9.20;99.90
51902;DHT22;37929;53.218;6.548;2023-02-18T09:06:31;9.20;99.90
51902;DHT22;37929;53.218;6.548;2023-02-18T09:08:57;9.20;99.90
51902;DHT22;37929;53.218;6.548;2023-02-18T09:11:22;9.10;99.90
51902;DHT22;37929;53.218;6.548;2023-02-18T09:13:48;9.10;99.90
51902;DHT22;37929;53.218;6.548;2023-02-18T09:16:16;9.10;99.90
51902;DHT22;37929;53.218;6.548;2023-02-18T09:18:43;9.10;99.90
51902;DHT22;37929;53.218;6.548;2023-02-18T09:21:12;9.10;99.90
51902;DHT22;37929;53.218;6.548;2023-02-18T09:23:38;9.10;99.90
51902;DHT22;37929;53.218;6.548;2023-02-18T09:26:05;9.10;99.90
51902;DHT22;37929;53.218;6.548;2023-02-18T09:28:32;9.10;99.90
51902;DHT22;37929;53.218;6.548;2023-02-18T09:31:03;9.10;99.90
51902;DHT22;37929;53.218;6.548;2023-02-18T09:33:29;9.00;99.90
51902;DHT22;37929;53.218;6.548;2023-02-18T09:35:55;9.10;99.90
51902;DHT22;37929;53.218;6.548;2023-02-18T09:38:21;9.00;99.90
51902;DHT22;37929;53.218;6.548;2023-02-18T09:40:50;9.00;99.90
51902;DHT22;37929;53.218;6.548;2023-02-18T09:43:26;9.10;99.90
51902;DHT22;37929;53.218;6.548;2023-02-18T09:45:54;9.10;99.90
51902;DHT22;37929;53.218;6.548;2023-02-18T09:48:26;9.10;99.90
51902;DHT22;37929;53.218;6.548;2023-02-18T09:50:52;9.10;99.90
51902;DHT22;37929;53.218;6.548;2023-02-18T09:53:20;9.10;99.90
51902;DHT22;37929;53.218;6.548;2023-02-18T09:55:47;9.10;99.90
51902;DHT22;37929;53.218;6.548;2023-02-18T09:58:20;9.10;99.90
51902;DHT22;37929;53.218;6.548;2023-02-18T10:01:03;9.20;99.90
51902;DHT22;37929;53.218;6.548;2023-02-18T10:03:29;9.20;99.90
51902;DHT22;37929;53.218;6.548;2023-02-18T10:06:02;9.20;99.90
51902;DHT22;37929;53.218;6.548;2023-02-18T10:08:32;9.20;99.90
51902;DHT22;37929;53.218;6.548;2023-02-18T10:10:59;9.20;99.90
51902;DHT22;37929;53.218;6.548;2023-02-18T10:13:29;9.20;99.90
51902;DHT22;37929;53.218;6.548;2023-02-18T10:15:55;9.30;99.90
51902;DHT22;37929;53.218;6.548;2023-02-18T10:18:25;9.30;99.90
51902;DHT22;37929;53.218;6.548;2023-02-18T10:21:05;9.30;99.90
51902;DHT22;37929;53.218;6.548;2023-02-18T10:23:34;9.30;99.90
51902;DHT22;37929;53.218;6.548;2023-02-18T10:26:05;9.30;99.90
51902;DHT22;37929;53.218;6.548;2023-02-18T10:28:31;9.30;99.90
51902;DHT22;37929;53.218;6.548;2023-02-18T10:31:02;9.30;99.90
51902;DHT22;37929;53.218;6.548;2023-02-18T10:44:29;9.50;99.90
51902;DHT22;37929;53.218;6.548;2023-02-18T10:47:23;9.50;99.90
51902;DHT22;37929;53.218;6.548;2023-02-18T10:50:07;9.50;99.90
51902;DHT22;37929;53.218;6.548;2023-02-18T10:52:39;9.60;99.90
51902;DHT22;37929;53.218;6.548;2023-02-18T10:55:08;9.60;99.90
51902;DHT22;37929;53.218;6.548;2023-02-18T10:57:45;9.70;99.90
51902;DHT22;37929;53.218;6.548;2023-02-18T11:00:25;9.70;99.90
51902;DHT22;37929;53.218;6.548;2023-02-18T11:03:45;9.80;99.90
51902;DHT22;37929;53.218;6.548;2023-02-18T11:06:23;9.80;99.90
51902;DHT22;37929;53.218;6.548;2023-02-18T11:08:50;9.80;99.90
51902;DHT22;37929;53.218;6.548;2023-02-18T11:11:28;9.80;99.90
51902;DHT22;37929;53.218;6.548;2023-02-18T11:13:59;9.80;99.90
51902;DHT22;37929;53.218;6.548;2023-02-18T11:16:43;9.80;99.90
51902;DHT22;37929;53.218;6.548;2023-02-18T11:19:33;9.90;99.90
51902;DHT22;37929;53.218;6.548;2023-02-18T11:24:48;9.90;99.90
51902;DHT22;37929;53.218;6.548;2023-02-18T11:27:37;10.00;99.90
51902;DHT22;37929;53.218;6.548;2023-02-18T11:30:53;10.00;99.90
51902;DHT22;37929;53.218;6.548;2023-02-18T11:32:57;10.00;99.90
51902;DHT22;37929;53.218;6.548;2023-02-18T11:35:27;10.00;99.90
51902;DHT22;37929;53.218;6.548;2023-02-18T11:37:56;10.10;99.90
51902;DHT22;37929;53.218;6.548;2023-02-18T11:40:34;10.10;99.90
51902;DHT22;37929;53.218;6.548;2023-02-18T11:43:15;10.00;99.90
51902;DHT22;37929;53.218;6.548;2023-02-18T11:45:45;10.10;99.90
51902;DHT22;37929;53.218;6.548;2023-02-18T11:48:18;10.10;99.90
51902;DHT22;37929;53.218;6.548;2023-02-18T11:50:50;10.10;99.90
51902;DHT22;37929;53.218;6.548;2023-02-18T11:54:05;10.10;99.90
51902;DHT22;37929;53.218;6.548;2023-02-18T11:56:34;10.10;99.90
51902;DHT22;37929;53.218;6.548;2023-02-18T11:59:02;10.10;99.90
51902;DHT22;37929;53.218;6.548;2023-02-18T12:04:16;10.10;99.90
51902;DHT22;37929;53.218;6.548;2023-02-18T12:10:20;10.10;99.90
51902;DHT22;37929;53.218;6.548;2023-02-18T12:12:57;10.10;99.90
51902;DHT22;37929;53.218;6.548;2023-02-18T12:18:31;10.20;99.90
51902;DHT22;37929;53.218;6.548;2023-02-18T12:26:22;10.20;99.90
51902;DHT22;37929;53.218;6.548;2023-02-18T12:40:38;10.30;99.90
51902;DHT22;37929;53.218;6.548;2023-02-18T12:43:32;10.40;99.90
51902;DHT22;37929;53.218;6.548;2023-02-18T12:49:20;10.40;99.90
51902;DHT22;37929;53.218;6.548;2023-02-18T12:57:38;10.50;99.90
51902;DHT22;37929;53.218;6.548;2023-02-18T13:03:15;10.60;99.90
51902;DHT22;37929;53.218;6.548;2023-02-18T13:09:18;10.50;99.90
51902;DHT22;37929;53.218;6.548;2023-02-18T13:12:03;10.50;99.90
51902;DHT22;37929;53.218;6.548;2023-02-18T13:14:33;10.50;99.90
51902;DHT22;37929;53.218;6.548;2023-02-18T13:17:02;10.50;99.90
51902;DHT22;37929;53.218;6.548;2023-02-18T13:19:40;10.50;99.90
51902;DHT22;37929;53.218;6.548;2023-02-18T13:22:09;10.40;99.90
51902;DHT22;37929;53.218;6.548;2023-02-18T13:24:39;10.40;99.90
51902;DHT22;37929;53.218;6.548;2023-02-18T13:35:47;10.40;99.90
51902;DHT22;37929;53.218;6.548;2023-02-18T13:41:20;10.30;99.90
51902;DHT22;37929;53.218;6.548;2023-02-18T13:43:46;10.40;99.90
51902;DHT22;37929;53.218;6.548;2023-02-18T13:46:17;10.40;99.90
51902;DHT22;37929;53.218;6.548;2023-02-18T13:51:25;10.40;99.90
51902;DHT22;37929;53.218;6.548;2023-02-18T13:54:42;10.30;99.90
51902;DHT22;37929;53.218;6.548;2023-02-18T13:56:50;10.40;99.90
51902;DHT22;37929;53.218;6.548;2023-02-18T14:07:44;10.30;99.90
51902;DHT22;37929;53.218;6.548;2023-02-18T14:25:49;10.30;99.90
51902;DHT22;37929;53.218;6.548;2023-02-18T14:33:41;10.30;99.90
51902;DHT22;37929;53.218;6.548;2023-02-18T14:41:59;10.10;99.90
51902;DHT22;37929;53.218;6.548;2023-02-18T14:50:33;9.90;99.90
51902;DHT22;37929;53.218;6.548;2023-02-18T14:53:04;9.80;99.90
51902;DHT22;37929;53.218;6.548;2023-02-18T14:55:36;9.90;99.90
51902;DHT22;37929;53.218;6.548;2023-02-18T14:58:23;9.90;99.90
51902;DHT22;37929;53.218;6.548;2023-02-18T15:00:50;9.80;99.90
51902;DHT22;37929;53.218;6.548;2023-02-18T15:03:18;9.80;99.90
51902;DHT22;37929;53.218;6.548;2023-02-18T15:05:48;9.80;99.90
51902;DHT22;37929;53.218;6.548;2023-02-18T15:08:17;9.80;99.90
51902;DHT22;37929;53.218;6.548;2023-02-18T15:13:23;9.80;99.90
51902;DHT22;37929;53.218;6.548;2023-02-18T15:15:55;9.80;99.90
51902;DHT22;37929;53.218;6.548;2023-02-18T15:21:05;9.80;99.90
51902;DHT22;37929;53.218;6.548;2023-02-18T15:23:35;9.80;99.90
51902;DHT22;37929;53.218;6.548;2023-02-18T15:26:02;9.70;99.90
51902;DHT22;37929;53.218;6.548;2023-02-18T15:28:31;9.70;99.90
51902;DHT22;37929;53.218;6.548;2023-02-18T15:30:59;9.70;99.90
51902;DHT22;37929;53.218;6.548;2023-02-18T15:33:26;9.70;99.90
51902;DHT22;37929;53.218;6.548;2023-02-18T15:36:03;9.70;99.90
51902;DHT22;37929;53.218;6.548;2023-02-18T15:38:30;9.50;99.90
51902;DHT22;37929;53.218;6.548;2023-02-18T15:40:56;9.60;99.90
51902;DHT22;37929;53.218;6.548;2023-02-18T15:43:24;9.60;99.90
51902;DHT22;37929;53.218;6.548;2023-02-18T15:45:54;9.70;99.90
51902;DHT22;37929;53.218;6.548;2023-02-18T15:48:33;9.60;99.90
51902;DHT22;37929;53.218;6.548;2023-02-18T15:51:04;9.60;99.90
51902;DHT22;37929;53.218;6.548;2023-02-18T15:53:31;9.50;99.90
51902;DHT22;37929;53.218;6.548;2023-02-18T15:56:06;9.50;99.90
51902;DHT22;37929;53.218;6.548;2023-02-18T15:58:34;9.50;99.90
51902;DHT22;37929;53.218;6.548;2023-02-18T16:01:05;9.50;99.90
51902;DHT22;37929;53.218;6.548;2023-02-18T16:03:44;9.40;99.90
51902;DHT22;37929;53.218;6.548;2023-02-18T16:06:24;9.50;99.90
51902;DHT22;37929;53.218;6.548;2023-02-18T16:09:15;9.40;99.90
51902;DHT22;37929;53.218;6.548;2023-02-18T16:11:47;9.40;99.90
51902;DHT22;37929;53.218;6.548;2023-02-18T16:14:23;9.40;99.90
51902;DHT22;37929;53.218;6.548;2023-02-18T16:19:57;9.30;99.90
51902;DHT22;37929;53.218;6.548;2023-02-18T16:25:09;9.30;99.90
51902;DHT22;37929;53.218;6.548;2023-02-18T16:28:09;9.30;99.90
51902;DHT22;37929;53.218;6.548;2023-02-18T16:30:36;9.30;99.90
51902;DHT22;37929;53.218;6.548;2023-02-18T16:33:02;9.20;99.90
51902;DHT22;37929;53.218;6.548;2023-02-18T16:35:29;9.20;99.90
51902;DHT22;37929;53.218;6.548;2023-02-18T16:37:55;9.20;99.90
51902;DHT22;37929;53.218;6.548;2023-02-18T16:40:33;9.20;99.90
51902;DHT22;37929;53.218;6.548;2023-02-18T16:43:01;9.20;99.90
51902;DHT22;37929;53.218;6.548;2023-02-18T16:45:37;9.20;99.90
51902;DHT22;37929;53.218;6.548;2023-02-18T16:48:04;9.10;99.90
51902;DHT22;37929;53.218;6.548;2023-02-18T16:50:32;9.20;99.90
51902;DHT22;37929;53.218;6.548;2023-02-18T16:52:59;9.10;99.90
51902;DHT22;37929;53.218;6.548;2023-02-18T16:55:28;9.10;99.90
51902;DHT22;37929;53.218;6.548;2023-02-18T16:57:54;9.00;99.90
51902;DHT22;37929;53.218;6.548;2023-02-18T17:00:21;9.10;99.90
51902;DHT22;37929;53.218;6.548;2023-02-18T17:02:53;9.00;99.90
51902;DHT22;37929;53.218;6.548;2023-02-18T17:05:28;9.10;99.90
51902;DHT22;37929;53.218;6.548;2023-02-18T17:07:59;9.00;99.90
51902;DHT22;37929;53.218;6.548;2023-02-18T17:10:29;9.00;99.90
51902;DHT22;37929;53.218;6.548;2023-02-18T17:12:54;9.00;99.90
51902;DHT22;37929;53.218;6.548;2023-02-18T17:15:33;8.90;99.90
51902;DHT22;37929;53.218;6.548;2023-02-18T17:17:59;8.90;99.90
51902;DHT22;37929;53.218;6.548;2023-02-18T17:20:31;8.90;99.90
51902;DHT22;37929;53.218;6.548;2023-02-18T17:22:57;8.90;99.90
51902;DHT22;37929;53.218;6.548;2023-02-18T17:25:29;8.90;99.90
51902;DHT22;37929;53.218;6.548;2023-02-18T17:27:55;8.90;99.90
51902;DHT22;37929;53.218;6.548;2023-02-18T17:30:21;8.80;99.90
51902;DHT22;37929;53.218;6.548;2023-02-18T17:32:47;8.90;99.90
51902;DHT22;37929;53.218;6.548;2023-02-18T17:35:18;9.10;99.90
51902;DHT22;37929;53.218;6.548;2023-02-18T17:37:44;8.90;99.90
51902;DHT22;37929;53.218;6.548;2023-02-18T17:40:19;8.90;99.90
51902;DHT22;37929;53.218;6.548;2023-02-18T17:42:45;8.90;99.90
51902;DHT22;37929;53.218;6.548;2023-02-18T17:47:45;8.90;99.90
51902;DHT22;37929;53.218;6.548;2023-02-18T17:50:11;8.90;99.90
51902;DHT22;37929;53.218;6.548;2023-02-18T17:52:37;9.30;99.90
51902;DHT22;37929;53.218;6.548;2023-02-18T17:55:24;8.90;99.90
51902;DHT22;37929;53.218;6.548;2023-02-18T17:57:51;8.90;99.90
51902;DHT22;37929;53.218;6.548;2023-02-18T18:02:48;8.90;99.90
51902;DHT22;37929;53.218;6.548;2023-02-18T18:05:26;8.80;99.90
51902;DHT22;37929;53.218;6.548;2023-02-18T18:07:52;8.90;99.90
51902;DHT22;37929;53.218;6.548;2023-02-18T18:10:20;8.90;99.90
51902;DHT22;37929;53.218;6.548;2023-02-18T18:12:48;8.80;99.90
51902;DHT22;37929;53.218;6.548;2023-02-18T18:15:24;8.80;99.90
51902;DHT22;37929;53.218;6.548;2023-02-18T18:17:50;8.80;99.90
51902;DHT22;37929;53.218;6.548;2023-02-18T18:20:17;8.80;99.90
51902;DHT22;37929;53.218;6.548;2023-02-18T18:22:43;8.80;99.90
51902;DHT22;37929;53.218;6.548;2023-02-18T18:27:42;8.80;99.90
51902;DHT22;37929;53.218;6.548;2023-02-18T18:30:08;8.80;99.90
51902;DHT22;37929;53.218;6.548;2023-02-18T18:32:40;8.80;99.90
51902;DHT22;37929;53.218;6.548;2023-02-18T18:37:52;8.80;99.90
51902;DHT22;37929;53.218;6.548;2023-02-18T18:40:20;8.80;99.90
51902;DHT22;37929;53.218;6.548;2023-02-18T18:42:46;8.80;99.90
51902;DHT22;37929;53.218;6.548;2023-02-18T18:45:19;8.80;99.90
51902;DHT22;37929;53.218;6.548;2023-02-18T18:47:46;8.80;99.90
51902;DHT22;37929;53.218;6.548;2023-02-18T18:50:12;8.80;99.90
51902;DHT22;37929;53.218;6.548;2023-02-18T18:52:39;8.80;99.90
51902;DHT22;37929;53.218;6.548;2023-02-18T18:55:30;8.80;99.90
51902;DHT22;37929;53.218;6.548;2023-02-18T18:57:57;8.80;99.90